createdAt,value
2018-08-12T00:00:59.271Z,14.9
2018-08-12T00:02:09.483Z,14.87
2018-08-12T00:03:19.850Z,14.85
2018-08-12T00:04:30.991Z,14.85
2018-08-12T00:05:40.404Z,14.91
2018-08-12T00:06:50.555Z,14.88
2018-08-12T00:08:00.673Z,14.91
2018-08-12T00:09:10.798Z,14.9
2018-08-12T00:10:20.944Z,14.84
2018-08-12T00:11:31.108Z,14.85
2018-08-12T00:12:41.261Z,14.84
2018-08-12T00:13:51.412Z,14.8
2018-08-12T00:15:01.574Z,14.77
2018-08-12T00:16:11.469Z,14.75
2018-08-12T00:17:21.663Z,14.74
2018-08-12T00:18:32.102Z,14.77
2018-08-12T00:19:42.465Z,14.72
2018-08-12T00:20:52.594Z,14.77
2018-08-12T00:22:02.954Z,14.75
2018-08-12T00:23:13.097Z,14.66
2018-08-12T00:24:23.271Z,14.66
2018-08-12T00:25:33.496Z,14.65
2018-08-12T00:26:43.665Z,14.63
2018-08-12T00:27:53.871Z,14.69
2018-08-12T00:29:04.013Z,14.67
2018-08-12T00:30:15.190Z,14.65
2018-08-12T00:31:25.444Z,14.69
2018-08-12T00:32:35.728Z,14.74
2018-08-12T00:33:45.937Z,14.63
2018-08-12T00:34:56.125Z,14.63
2018-08-12T00:36:06.339Z,14.54
2018-08-12T00:37:16.463Z,14.52
2018-08-12T00:38:26.620Z,14.58
2018-08-12T00:39:36.760Z,14.4
2018-08-12T00:40:46.970Z,14.43
2018-08-12T00:41:57.106Z,14.29
2018-08-12T00:43:07.213Z,14.24
2018-08-12T00:44:17.139Z,14.25
2018-08-12T00:45:27.281Z,14.37
2018-08-12T00:46:37.671Z,14.37
2018-08-12T00:47:47.791Z,14.39
2018-08-12T00:48:57.951Z,14.22
2018-08-12T00:50:08.179Z,14.26
2018-08-12T00:51:18.043Z,14.29
2018-08-12T00:52:27.964Z,14.37
2018-08-12T00:53:38.269Z,14.31
2018-08-12T00:54:48.431Z,14.26
2018-08-12T00:55:58.606Z,14.26
2018-08-12T00:57:08.803Z,14.36
2018-08-12T00:58:19.012Z,14.25
2018-08-12T00:59:29.172Z,14.28
2018-08-12T01:00:39.287Z,14.21
2018-08-12T01:01:49.426Z,14.22
2018-08-12T01:02:59.046Z,14.25
2018-08-12T01:04:09.158Z,14.25
2018-08-12T01:05:19.319Z,14.24
2018-08-12T01:06:29.474Z,14.26
2018-08-12T01:07:39.618Z,14.19
2018-08-12T01:08:49.783Z,14.25
2018-08-12T01:09:59.646Z,14.28
2018-08-12T01:11:09.786Z,14.22
2018-08-12T01:12:19.662Z,14.25
2018-08-12T01:13:29.769Z,14.28
2018-08-12T01:14:39.884Z,14.24
2018-08-12T01:15:49.665Z,14.25
2018-08-12T01:16:59.812Z,14.24
2018-08-12T01:18:09.461Z,14.24
2018-08-12T01:19:19.642Z,14.43
2018-08-12T01:20:29.947Z,14.24
2018-08-12T01:21:40.091Z,14.24
2018-08-12T01:22:50.023Z,14.34
2018-08-12T01:23:59.884Z,14.24
2018-08-12T01:25:10.036Z,14.32
2018-08-12T01:26:20.207Z,14.26
2018-08-12T01:27:30.547Z,14.31
2018-08-12T01:28:40.686Z,14.22
2018-08-12T01:29:50.849Z,14.25
2018-08-12T01:31:01.073Z,14.26
2018-08-12T01:32:10.681Z,14.21
2018-08-12T01:33:20.862Z,14.26
2018-08-12T01:34:31.004Z,14.24
2018-08-12T01:35:41.153Z,14.13
2018-08-12T01:36:51.349Z,14.1
2018-08-12T01:38:01.517Z,14.13
2018-08-12T01:39:11.645Z,14.14
2018-08-12T01:40:21.809Z,14.11
2018-08-12T01:41:31.985Z,14.11
2018-08-12T01:42:42.217Z,14.09
2018-08-12T01:43:52.394Z,14.13
2018-08-12T01:45:02.779Z,14.1
2018-08-12T01:46:12.962Z,14.09
2018-08-12T01:47:23.141Z,14.14
2018-08-12T01:48:33.394Z,14.09
2018-08-12T01:49:43.564Z,14.14
2018-08-12T01:50:53.781Z,14.07
2018-08-12T01:52:03.567Z,14.19
2018-08-12T01:53:13.125Z,14.14
2018-08-12T01:54:23.233Z,14.19
2018-08-12T01:55:33.126Z,14.19
2018-08-12T01:56:43.246Z,14.16
2018-08-12T01:57:53.172Z,14.1
2018-08-12T01:59:03.103Z,14.18
2018-08-12T02:00:13.258Z,14.13
2018-08-12T02:01:23.438Z,14.11
2018-08-12T02:02:33.563Z,14.07
2018-08-12T02:03:43.685Z,14.13
2018-08-12T02:04:53.830Z,14.16
2018-08-12T02:06:03.946Z,14.16
2018-08-12T02:07:13.913Z,14.11
2018-08-12T02:08:24.069Z,14.22
2018-08-12T02:09:34.195Z,14.16
2018-08-12T02:10:44.327Z,14.13
2018-08-12T02:11:54.277Z,14.11
2018-08-12T02:13:03.901Z,14.14
2018-08-12T02:14:14.016Z,14.14
2018-08-12T02:15:24.171Z,14.04
2018-08-12T02:16:34.300Z,14.07
2018-08-12T02:17:44.483Z,14
2018-08-12T02:18:54.383Z,14.04
2018-08-12T02:20:04.516Z,14.03
2018-08-12T02:21:14.712Z,13.92
2018-08-12T02:22:24.852Z,13.88
2018-08-12T02:23:35.113Z,13.91
2018-08-12T02:24:45.376Z,13.81
2018-08-12T02:25:55.572Z,13.76
2018-08-12T02:27:05.805Z,13.7
2018-08-12T02:28:15.704Z,13.71
2018-08-12T02:29:25.780Z,13.63
2018-08-12T02:30:35.682Z,13.61
2018-08-12T02:31:45.848Z,13.66
2018-08-12T02:32:56.033Z,13.66
2018-08-12T02:34:06.300Z,13.55
2018-08-12T02:35:16.441Z,13.56
2018-08-12T02:36:26.568Z,13.55
2018-08-12T02:37:36.734Z,13.46
2018-08-12T02:38:46.883Z,13.31
2018-08-12T02:39:57.013Z,13.36
2018-08-12T02:41:07.183Z,13.37
2018-08-12T02:42:17.418Z,13.34
2018-08-12T02:43:27.535Z,13.3
2018-08-12T02:44:37.395Z,13.33
2018-08-12T02:45:47.549Z,13.31
2018-08-12T02:46:57.761Z,13.33
2018-08-12T02:48:07.904Z,13.33
2018-08-12T02:49:18.106Z,13.26
2018-08-12T02:50:28.350Z,13.36
2018-08-12T02:51:38.509Z,13.26
2018-08-12T02:52:48.380Z,13.26
2018-08-12T02:53:58.516Z,13.18
2018-08-12T02:55:08.660Z,13.16
2018-08-12T02:56:18.822Z,13.15
2018-08-12T02:57:29.067Z,13.04
2018-08-12T02:58:38.931Z,12.89
2018-08-12T02:59:49.069Z,12.93
2018-08-12T03:00:58.990Z,12.95
2018-08-12T03:02:09.118Z,12.96
2018-08-12T03:03:20.199Z,12.97
2018-08-12T03:04:30.138Z,12.95
2018-08-12T03:05:40.316Z,12.96
2018-08-12T03:06:50.455Z,12.88
2018-08-12T03:08:00.329Z,12.92
2018-08-12T03:09:10.473Z,12.85
2018-08-12T03:10:20.628Z,12.81
2018-08-12T03:11:30.799Z,12.92
2018-08-12T03:12:40.969Z,12.82
2018-08-12T03:13:51.170Z,12.95
2018-08-12T03:15:01.328Z,12.8
2018-08-12T03:16:11.654Z,12.89
2018-08-12T03:17:22.045Z,12.93
2018-08-12T03:18:32.299Z,12.92
2018-08-12T03:19:42.427Z,12.88
2018-08-12T03:20:52.529Z,12.85
2018-08-12T03:22:02.675Z,12.93
2018-08-12T03:23:12.864Z,12.88
2018-08-12T03:24:22.983Z,12.9
2018-08-12T03:25:32.943Z,12.89
2018-08-12T03:26:43.099Z,12.89
2018-08-12T03:27:53.251Z,12.85
2018-08-12T03:29:03.364Z,12.92
2018-08-12T03:30:14.100Z,12.8
2018-08-12T03:31:24.297Z,12.84
2018-08-12T03:32:35.439Z,12.84
2018-08-12T03:33:45.640Z,12.9
2018-08-12T03:34:55.796Z,12.78
2018-08-12T03:36:05.976Z,12.84
2018-08-12T03:37:17.176Z,12.84
2018-08-12T03:38:27.335Z,12.97
2018-08-12T03:39:37.524Z,12.9
2018-08-12T03:40:47.730Z,12.93
2018-08-12T03:41:57.883Z,12.9
2018-08-12T03:43:08.091Z,12.97
2018-08-12T03:44:18.460Z,12.92
2018-08-12T03:45:28.542Z,13.01
2018-08-12T03:46:38.710Z,12.97
2018-08-12T03:47:48.825Z,13.03
2018-08-12T03:48:59.068Z,13.04
2018-08-12T03:50:09.250Z,13.06
2018-08-12T03:51:19.361Z,13
2018-08-12T03:52:29.473Z,12.96
2018-08-12T03:53:39.621Z,13.03
2018-08-12T03:54:49.744Z,13.04
2018-08-12T03:55:59.856Z,13.09
2018-08-12T03:57:09.987Z,13.11
2018-08-12T03:58:20.221Z,13.04
2018-08-12T03:59:30.387Z,13.12
2018-08-12T04:00:40.514Z,13.04
2018-08-12T04:01:50.648Z,13.06
2018-08-12T04:03:00.523Z,13.11
2018-08-12T04:04:10.756Z,13.06
2018-08-12T04:05:20.888Z,13.01
2018-08-12T04:06:31.009Z,13.04
2018-08-12T04:07:41.150Z,13.03
2018-08-12T04:08:51.265Z,13.13
2018-08-12T04:10:01.464Z,13.16
2018-08-12T04:11:11.861Z,13.23
2018-08-12T04:12:21.988Z,13.29
2018-08-12T04:13:31.848Z,13.33
2018-08-12T04:14:42.016Z,13.27
2018-08-12T04:15:51.893Z,13.31
2018-08-12T04:17:02.011Z,13.41
2018-08-12T04:18:12.131Z,13.37
2018-08-12T04:19:22.301Z,13.38
2018-08-12T04:20:32.480Z,13.44
2018-08-12T04:21:42.693Z,13.55
2018-08-12T04:22:52.802Z,13.55
2018-08-12T04:24:02.995Z,13.46
2018-08-12T04:25:13.118Z,13.48
2018-08-12T04:26:23.246Z,13.36
2018-08-12T04:27:33.389Z,13.38
2018-08-12T04:28:43.236Z,13.4
2018-08-12T04:29:53.112Z,13.36
2018-08-12T04:31:02.911Z,13.29
2018-08-12T04:32:13.148Z,13.26
2018-08-12T04:33:23.368Z,13.18
2018-08-12T04:34:33.516Z,13.11
2018-08-12T04:35:43.653Z,13.16
2018-08-12T04:36:53.771Z,13.06
2018-08-12T04:38:03.931Z,13.09
2018-08-12T04:39:14.573Z,13.15
2018-08-12T04:40:24.769Z,13.09
2018-08-12T04:41:35.873Z,13.12
2018-08-12T04:42:46.035Z,13.09
2018-08-12T04:43:56.162Z,13.27
2018-08-12T04:45:06.516Z,13.26
2018-08-12T04:46:17.003Z,13.37
2018-08-12T04:47:27.126Z,13.36
2018-08-12T04:48:37.299Z,13.45
2018-08-12T04:49:47.505Z,13.38
2018-08-12T04:50:57.638Z,13.33
2018-08-12T04:52:07.777Z,13.36
2018-08-12T04:53:17.942Z,13.38
2018-08-12T04:54:28.069Z,13.4
2018-08-12T04:55:38.189Z,13.44
2018-08-12T04:56:48.389Z,13.33
2018-08-12T04:57:58.538Z,13.38
2018-08-12T04:59:08.431Z,13.37
2018-08-12T05:00:18.542Z,13.37
2018-08-12T05:01:28.720Z,13.41
2018-08-12T05:02:38.948Z,13.46
2018-08-12T05:03:49.181Z,13.36
2018-08-12T05:04:59.442Z,13.34
2018-08-12T05:06:09.327Z,13.36
2018-08-12T05:07:19.490Z,13.33
2018-08-12T05:08:29.653Z,13.34
2018-08-12T05:09:39.967Z,13.37
2018-08-12T05:10:50.075Z,13.37
2018-08-12T05:12:00.281Z,13.36
2018-08-12T05:13:10.555Z,13.34
2018-08-12T05:14:20.406Z,13.33
2018-08-12T05:15:30.261Z,13.31
2018-08-12T05:16:40.412Z,13.4
2018-08-12T05:17:50.545Z,13.51
2018-08-12T05:19:00.667Z,13.61
2018-08-12T05:20:10.992Z,13.59
2018-08-12T05:21:20.877Z,13.67
2018-08-12T05:22:31.207Z,13.76
2018-08-12T05:23:41.324Z,13.82
2018-08-12T05:24:51.471Z,13.88
2018-08-12T05:26:01.597Z,13.85
2018-08-12T05:27:11.489Z,13.95
2018-08-12T05:28:21.604Z,14.03
2018-08-12T05:29:31.732Z,14.06
2018-08-12T05:30:42.016Z,14.04
2018-08-12T05:31:52.166Z,14.07
2018-08-12T05:33:02.412Z,13.99
2018-08-12T05:34:12.565Z,13.91
2018-08-12T05:35:22.756Z,13.95
2018-08-12T05:36:33.146Z,13.85
2018-08-12T05:37:43.245Z,13.84
2018-08-12T05:38:53.110Z,13.82
2018-08-12T05:40:03.232Z,13.88
2018-08-12T05:41:13.380Z,13.94
2018-08-12T05:42:23.513Z,13.91
2018-08-12T05:43:33.372Z,13.94
2018-08-12T05:44:42.878Z,13.89
2018-08-12T05:45:53.076Z,13.94
2018-08-12T05:47:04.189Z,13.99
2018-08-12T05:48:14.303Z,14
2018-08-12T05:49:24.545Z,13.99
2018-08-12T05:50:34.786Z,14.02
2018-08-12T05:51:44.953Z,14.13
2018-08-12T05:52:55.084Z,14.11
2018-08-12T05:54:05.331Z,14.16
2018-08-12T05:55:15.612Z,14.25
2018-08-12T05:56:25.867Z,14.26
2018-08-12T05:57:36.340Z,14.4
2018-08-12T05:58:46.506Z,14.6
2018-08-12T05:59:56.650Z,14.54
2018-08-12T06:01:06.778Z,14.63
2018-08-12T06:02:16.913Z,14.67
2018-08-12T06:03:26.781Z,14.8
2018-08-12T06:04:36.930Z,14.78
2018-08-12T06:05:47.103Z,14.81
2018-08-12T06:06:57.280Z,14.87
2018-08-12T06:08:07.214Z,14.93
2018-08-12T06:09:17.365Z,14.93
2018-08-12T06:10:27.528Z,15
2018-08-12T06:11:37.789Z,14.96
2018-08-12T06:12:47.991Z,14.98
2018-08-12T06:13:58.251Z,14.99
2018-08-12T06:15:08.494Z,14.91
2018-08-12T06:16:18.619Z,14.99
2018-08-12T06:17:29.167Z,15
2018-08-12T06:18:39.386Z,14.96
2018-08-12T06:19:49.528Z,15
2018-08-12T06:20:59.693Z,14.99
2018-08-12T06:22:09.878Z,14.98
2018-08-12T06:23:20.019Z,14.95
2018-08-12T06:24:29.638Z,15.08
2018-08-12T06:25:39.894Z,15.06
2018-08-12T06:26:50.238Z,15.11
2018-08-12T06:28:00.372Z,15.05
2018-08-12T06:29:10.577Z,15.09
2018-08-12T06:30:20.799Z,15.05
2018-08-12T06:31:31.137Z,15.09
2018-08-12T06:32:41.173Z,15.2
2018-08-12T06:33:51.340Z,15.2
2018-08-12T06:35:02.437Z,15.24
2018-08-12T06:36:12.356Z,15.21
2018-08-12T06:37:22.523Z,15.23
2018-08-12T06:38:32.695Z,15.4
2018-08-12T06:39:43.128Z,15.48
2018-08-12T06:40:53.463Z,15.57
2018-08-12T06:42:03.371Z,15.6
2018-08-12T06:43:13.262Z,15.64
2018-08-12T06:44:23.451Z,15.84
2018-08-12T06:45:33.674Z,15.84
2018-08-12T06:46:43.867Z,15.96
2018-08-12T06:47:54.046Z,16.04
2018-08-12T06:49:04.182Z,16.01
2018-08-12T06:50:14.323Z,16.1
2018-08-12T06:51:24.460Z,16.1
2018-08-12T06:52:34.609Z,16.16
2018-08-12T06:53:44.781Z,16.21
2018-08-12T06:54:55.009Z,16.32
2018-08-12T06:56:06.113Z,16.25
2018-08-12T06:57:16.529Z,16.36
2018-08-12T06:58:26.662Z,16.39
2018-08-12T06:59:36.929Z,16.47
2018-08-12T07:00:47.147Z,16.44
2018-08-12T07:01:57.292Z,16.43
2018-08-12T07:03:07.433Z,16.5
2018-08-12T07:04:17.585Z,16.51
2018-08-12T07:05:27.768Z,16.51
2018-08-12T07:06:37.913Z,16.53
2018-08-12T07:07:49.041Z,16.62
2018-08-12T07:08:59.231Z,16.71
2018-08-12T07:10:09.351Z,16.72
2018-08-12T07:11:19.577Z,16.8
2018-08-12T07:12:29.815Z,16.9
2018-08-12T07:13:40.230Z,16.84
2018-08-12T07:14:50.354Z,17.05
2018-08-12T07:16:00.473Z,17.01
2018-08-12T07:17:10.649Z,17.05
2018-08-12T07:18:20.909Z,17.12
2018-08-12T07:19:31.115Z,17.17
2018-08-12T07:20:41.276Z,17.3
2018-08-12T07:21:51.539Z,17.35
2018-08-12T07:23:01.453Z,17.39
2018-08-12T07:24:11.582Z,17.45
2018-08-12T07:25:21.727Z,17.54
2018-08-12T07:26:31.971Z,17.57
2018-08-12T07:27:42.260Z,17.58
2018-08-12T07:28:52.424Z,17.62
2018-08-12T07:30:02.666Z,17.6
2018-08-12T07:31:12.927Z,17.68
2018-08-12T07:32:22.463Z,17.67
2018-08-12T07:33:32.440Z,17.77
2018-08-12T07:34:42.315Z,17.72
2018-08-12T07:35:52.448Z,17.83
2018-08-12T07:37:02.631Z,17.91
2018-08-12T07:38:12.764Z,17.86
2018-08-12T07:39:22.390Z,18.04
2018-08-12T07:40:32.378Z,18.02
2018-08-12T07:41:42.253Z,18.05
2018-08-12T07:42:53.393Z,18.12
2018-08-12T07:44:03.566Z,18.23
2018-08-12T07:45:13.707Z,18.28
2018-08-12T07:46:23.900Z,18.3
2018-08-12T07:47:33.801Z,18.23
2018-08-12T07:48:44.102Z,18.35
2018-08-12T07:49:54.293Z,18.38
2018-08-12T07:51:04.423Z,18.52
2018-08-12T07:52:14.562Z,18.49
2018-08-12T07:53:24.696Z,18.56
2018-08-12T07:54:34.876Z,18.62
2018-08-12T07:55:45.086Z,18.72
2018-08-12T07:56:55.206Z,18.73
2018-08-12T07:58:05.433Z,18.73
2018-08-12T07:59:15.338Z,18.78
2018-08-12T08:00:25.516Z,18.67
2018-08-12T08:01:35.665Z,18.72
2018-08-12T08:02:45.890Z,18.72
2018-08-12T08:03:56.099Z,18.8
2018-08-12T08:05:06.362Z,18.8
2018-08-12T08:06:16.811Z,18.95
2018-08-12T08:07:26.901Z,19
2018-08-12T08:08:37.171Z,19.08
2018-08-12T08:09:47.364Z,19.15
2018-08-12T08:10:57.530Z,19.24
2018-08-12T08:12:07.303Z,19.46
2018-08-12T08:13:17.471Z,19.46
2018-08-12T08:14:27.683Z,19.64
2018-08-12T08:15:37.852Z,19.82
2018-08-12T08:16:48.021Z,19.9
2018-08-12T08:17:58.216Z,19.97
2018-08-12T08:19:08.391Z,20.01
2018-08-12T08:20:19.711Z,20.19
2018-08-12T08:21:29.975Z,20.28
2018-08-12T08:22:40.150Z,20.43
2018-08-12T08:23:50.292Z,20.6
2018-08-12T08:25:00.432Z,20.79
2018-08-12T08:26:10.573Z,20.85
2018-08-12T08:27:20.767Z,20.97
2018-08-12T08:28:30.990Z,20.96
2018-08-12T08:29:41.120Z,21.01
2018-08-12T08:30:51.310Z,21.22
2018-08-12T08:32:02.317Z,21.76
2018-08-12T08:33:12.857Z,22.24
2018-08-12T08:34:22.746Z,22.63
2018-08-12T08:35:32.893Z,23.18
2018-08-12T08:36:43.019Z,23.43
2018-08-12T08:37:53.182Z,23.72
2018-08-12T08:39:03.441Z,24.07
2018-08-12T08:40:13.628Z,24.28
2018-08-12T08:41:23.811Z,24.17
2018-08-12T08:42:34.070Z,24.22
2018-08-12T08:43:43.919Z,24.44
2018-08-12T08:44:54.090Z,24.84
2018-08-12T08:46:04.251Z,25.22
2018-08-12T08:47:14.437Z,25.42
2018-08-12T08:48:24.622Z,25.69
2018-08-12T08:49:34.940Z,25.68
2018-08-12T08:50:45.362Z,25.68
2018-08-12T08:51:55.888Z,25.71
2018-08-12T08:53:06.090Z,25.65
2018-08-12T08:54:16.305Z,25.76
2018-08-12T08:55:26.466Z,25.81
2018-08-12T08:56:36.647Z,25.92
2018-08-12T08:57:46.837Z,26.06
2018-08-12T08:58:57.025Z,26.15
2018-08-12T09:00:06.957Z,26.22
2018-08-12T09:01:17.264Z,26.31
2018-08-12T09:02:27.621Z,26.55
2018-08-12T09:03:37.852Z,26.77
2018-08-12T09:04:48.077Z,26.86
2018-08-12T09:05:58.291Z,26.85
2018-08-12T09:07:08.461Z,26.7
2018-08-12T09:08:19.001Z,26.34
2018-08-12T09:09:29.943Z,26.11
2018-08-12T09:10:39.827Z,25.85
2018-08-12T09:11:50.033Z,25.77
2018-08-12T09:13:00.292Z,25.88
2018-08-12T09:14:10.479Z,26.14
2018-08-12T09:15:20.376Z,26.37
2018-08-12T09:16:30.541Z,26.51
2018-08-12T09:17:40.732Z,26.58
2018-08-12T09:18:50.881Z,26.68
2018-08-12T09:20:00.791Z,26.59
2018-08-12T09:21:11.003Z,26.45
2018-08-12T09:22:21.169Z,26.43
2018-08-12T09:23:31.128Z,26.48
2018-08-12T09:24:41.342Z,26.53
2018-08-12T09:25:51.514Z,26.8
2018-08-12T09:27:01.843Z,26.93
2018-08-12T09:28:12.143Z,26.99
2018-08-12T09:29:22.329Z,27.28
2018-08-12T09:30:32.583Z,27.43
2018-08-12T09:31:42.517Z,27.39
2018-08-12T09:32:52.707Z,27.3
2018-08-12T09:34:02.904Z,27.27
2018-08-12T09:35:13.075Z,27.58
2018-08-12T09:36:23.277Z,27.61
2018-08-12T09:37:33.544Z,27.63
2018-08-12T09:38:43.702Z,27.67
2018-08-12T09:39:53.870Z,27.64
2018-08-12T09:41:05.118Z,27.72
2018-08-12T09:42:15.348Z,27.57
2018-08-12T09:43:25.612Z,27.35
2018-08-12T09:44:35.823Z,27.33
2018-08-12T09:45:46.030Z,27.53
2018-08-12T09:46:56.259Z,27.71
2018-08-12T09:48:06.540Z,28
2018-08-12T09:49:16.787Z,28.22
2018-08-12T09:50:26.626Z,28.34
2018-08-12T09:51:37.110Z,28.5
2018-08-12T09:52:48.013Z,28.45
2018-08-12T09:53:58.232Z,28.42
2018-08-12T09:55:08.406Z,28.58
2018-08-12T09:56:18.634Z,28.64
2018-08-12T09:57:28.935Z,28.64
2018-08-12T09:58:39.280Z,28.56
2018-08-12T09:59:49.528Z,28.58
2018-08-12T10:00:59.772Z,28.61
2018-08-12T10:02:10.218Z,28.77
2018-08-12T10:03:20.408Z,28.7
2018-08-12T10:04:30.606Z,28.84
2018-08-12T10:05:40.810Z,29.07
2018-08-12T10:06:51.009Z,29.14
2018-08-12T10:08:01.197Z,29.02
2018-08-12T10:09:11.145Z,28.87
2018-08-12T10:10:21.330Z,28.67
2018-08-12T10:11:31.547Z,28.58
2018-08-12T10:12:41.517Z,28.69
2018-08-12T10:13:51.799Z,28.69
2018-08-12T10:15:02.054Z,28.89
2018-08-12T10:16:12.272Z,28.99
2018-08-12T10:17:22.663Z,29.23
2018-08-12T10:18:32.824Z,29.33
2018-08-12T10:19:43.005Z,29.66
2018-08-12T10:20:53.219Z,29.81
2018-08-12T10:22:03.470Z,30.17
2018-08-12T10:23:14.374Z,30.35
2018-08-12T10:24:24.564Z,30.49
2018-08-12T10:25:34.755Z,30.63
2018-08-12T10:26:44.949Z,30.61
2018-08-12T10:27:55.180Z,30.41
2018-08-12T10:29:05.417Z,30.32
2018-08-12T10:30:15.896Z,29.95
2018-08-12T10:31:26.080Z,29.69
2018-08-12T10:32:36.292Z,29.58
2018-08-12T10:33:46.523Z,29.23
2018-08-12T10:34:56.787Z,29.09
2018-08-12T10:36:06.999Z,29.02
2018-08-12T10:37:17.276Z,29.02
2018-08-12T10:38:28.452Z,29.03
2018-08-12T10:39:38.646Z,29.2
2018-08-12T10:40:49.917Z,29.36
2018-08-12T10:42:00.108Z,29.51
2018-08-12T10:43:10.308Z,29.57
2018-08-12T10:44:20.670Z,29.54
2018-08-12T10:45:30.912Z,29.53
2018-08-12T10:46:41.109Z,29.5
2018-08-12T10:47:51.220Z,29.6
2018-08-12T10:49:01.153Z,29.5
2018-08-12T10:50:11.393Z,29.53
2018-08-12T10:51:21.236Z,29.65
2018-08-12T10:52:31.291Z,29.67
2018-08-12T10:53:41.469Z,29.85
2018-08-12T10:54:51.674Z,30.14
2018-08-12T10:56:01.927Z,30.03
2018-08-12T10:57:12.110Z,29.82
2018-08-12T10:58:22.358Z,29.65
2018-08-12T10:59:32.921Z,29.4
2018-08-12T11:00:43.137Z,29.31
2018-08-12T11:01:53.325Z,28.94
2018-08-12T11:03:03.258Z,28.76
2018-08-12T11:04:13.432Z,28.34
2018-08-12T11:05:23.633Z,28.41
2018-08-12T11:06:33.912Z,28.36
2018-08-12T11:11:23.473Z,29.51
2018-08-12T11:12:34.336Z,29.5
2018-08-12T11:13:44.643Z,29.47
2018-08-12T11:14:55.111Z,29.5
2018-08-12T11:16:05.443Z,29.43
2018-08-12T11:17:15.677Z,29.35
2018-08-12T11:18:25.892Z,29.29
2018-08-12T11:19:36.113Z,29.31
2018-08-12T11:20:46.310Z,29.33
2018-08-12T11:21:56.530Z,29.39
2018-08-12T11:23:06.730Z,29.54
2018-08-12T11:24:16.973Z,29.66
2018-08-12T11:25:27.221Z,29.7
2018-08-12T11:26:37.438Z,29.69
2018-08-12T11:27:47.623Z,29.7
2018-08-12T11:28:57.681Z,29.7
2018-08-12T11:30:07.950Z,29.76
2018-08-12T11:31:18.240Z,29.85
2018-08-12T11:32:28.229Z,30.03
2018-08-12T11:33:38.549Z,30.14
2018-08-12T11:34:48.971Z,30.39
2018-08-12T11:35:59.083Z,30.56
2018-08-12T11:37:10.321Z,30.76
2018-08-12T11:38:20.539Z,30.97
2018-08-12T11:39:30.833Z,31.1
2018-08-12T11:40:43.410Z,31.07
2018-08-12T11:41:53.734Z,30.94
2018-08-12T11:43:03.929Z,30.75
2018-08-12T11:44:15.107Z,30.64
2018-08-12T11:45:25.350Z,30.63
2018-08-12T11:46:35.518Z,30.51
2018-08-12T11:47:46.747Z,30.37
2018-08-12T11:48:56.940Z,30.02
2018-08-12T11:50:07.364Z,29.87
2018-08-12T11:51:17.556Z,29.45
2018-08-12T11:52:27.745Z,29.1
2018-08-12T11:53:37.951Z,29.17
2018-08-12T11:54:49.465Z,29.17
2018-08-12T11:55:59.733Z,28.95
2018-08-12T11:57:10.111Z,28.8
2018-08-12T11:58:20.590Z,28.74
2018-08-12T11:59:30.546Z,28.7
2018-08-12T12:00:40.774Z,28.81
2018-08-12T12:01:51.052Z,28.92
2018-08-12T12:03:01.295Z,28.95
2018-08-12T12:04:11.717Z,28.99
2018-08-12T12:05:22.257Z,29.23
2018-08-12T12:06:32.757Z,29.48
2018-08-12T12:07:43.013Z,29.72
2018-08-12T12:08:53.197Z,29.88
2018-08-12T12:10:03.456Z,29.88
2018-08-12T12:11:13.459Z,29.91
2018-08-12T12:12:23.804Z,29.77
2018-08-12T12:13:34.149Z,29.73
2018-08-12T12:14:44.463Z,29.67
2018-08-12T12:15:54.626Z,29.7
2018-08-12T12:17:04.819Z,29.81
2018-08-12T12:18:14.812Z,29.94
2018-08-12T12:19:25.186Z,29.88
2018-08-12T12:20:35.542Z,29.91
2018-08-12T12:21:45.951Z,29.99
2018-08-12T12:22:56.332Z,29.95
2018-08-12T12:24:06.571Z,29.91
2018-08-12T12:25:16.855Z,29.89
2018-08-12T12:26:26.835Z,29.94
2018-08-12T12:27:37.060Z,30.07
2018-08-12T12:28:47.254Z,30.1
2018-08-12T12:29:57.254Z,30.03
2018-08-12T12:31:07.467Z,30.07
2018-08-12T12:32:17.696Z,29.91
2018-08-12T12:33:27.948Z,29.62
2018-08-12T12:34:38.208Z,29.39
2018-08-12T12:35:48.543Z,29.13
2018-08-12T12:36:58.883Z,28.91
2018-08-12T12:38:10.116Z,28.76
2018-08-12T12:39:21.358Z,28.57
2018-08-12T12:40:31.614Z,28.53
2018-08-12T12:41:41.605Z,28.61
2018-08-12T12:42:51.810Z,28.51
2018-08-12T12:44:02.261Z,28.51
2018-08-12T12:45:12.505Z,28.24
2018-08-12T12:46:22.790Z,28.09
2018-08-12T12:47:32.995Z,28.01
2018-08-12T12:48:43.274Z,28
2018-08-12T12:49:53.567Z,28.05
2018-08-12T12:51:03.860Z,28.01
2018-08-12T12:52:14.065Z,28.11
2018-08-12T12:53:24.426Z,28.11
2018-08-12T12:54:34.735Z,28.14
2018-08-12T12:55:45.282Z,28.22
2018-08-12T12:56:55.520Z,28.09
2018-08-12T12:58:05.840Z,27.89
2018-08-12T12:59:16.545Z,27.64
2018-08-12T13:00:27.936Z,27.48
2018-08-12T13:01:38.917Z,27.31
2018-08-12T13:02:49.236Z,27.14
2018-08-12T13:04:03.160Z,27.08
2018-08-12T13:05:13.605Z,27.11
2018-08-12T13:06:23.538Z,27.11
2018-08-12T13:07:33.754Z,27.04
2018-08-12T13:08:43.954Z,26.96
2018-08-12T13:09:54.331Z,27.01
2018-08-12T13:11:04.606Z,26.99
2018-08-12T13:12:14.831Z,27.05
2018-08-12T13:13:25.073Z,27.14
2018-08-12T13:14:35.287Z,27.05
2018-08-12T13:15:45.783Z,27.12
2018-08-12T13:16:56.015Z,27.1
2018-08-12T13:18:06.312Z,27.11
2018-08-12T13:19:16.645Z,27.14
2018-08-12T13:20:26.935Z,27.23
2018-08-12T13:21:37.300Z,27.27
2018-08-12T13:22:47.557Z,27.19
2018-08-12T13:23:57.833Z,27.27
2018-08-12T13:25:08.502Z,27.3
2018-08-12T13:26:18.939Z,27.26
2018-08-12T13:27:29.218Z,27.33
2018-08-12T13:28:39.563Z,27.31
2018-08-12T13:29:49.807Z,27.27
2018-08-12T13:31:00.131Z,27.19
2018-08-12T13:32:10.437Z,27.08
2018-08-12T13:33:20.810Z,26.98
2018-08-12T13:34:31.047Z,26.98
2018-08-12T13:35:41.312Z,26.86
2018-08-12T13:36:51.678Z,26.74
2018-08-12T13:38:01.959Z,26.64
2018-08-12T13:39:12.267Z,26.59
2018-08-12T13:40:22.515Z,26.56
2018-08-12T13:41:32.875Z,26.56
2018-08-12T13:42:43.203Z,26.53
2018-08-12T13:43:53.508Z,26.43
2018-08-12T13:45:03.849Z,26.34
2018-08-12T13:46:15.132Z,26.34
2018-08-12T13:47:25.532Z,26.37
2018-08-12T13:48:35.859Z,26.29
2018-08-12T13:49:46.283Z,26.3
2018-08-12T13:50:56.635Z,26.3
2018-08-12T13:52:06.997Z,26.27
2018-08-12T13:53:17.753Z,26.3
2018-08-12T13:54:28.212Z,26.4
2018-08-12T13:55:38.463Z,26.4
2018-08-12T13:56:48.739Z,26.37
2018-08-12T13:57:58.941Z,26.37
2018-08-12T13:59:09.180Z,26.48
2018-08-12T14:00:19.413Z,26.45
2018-08-12T14:01:29.685Z,26.43
2018-08-12T14:02:40.148Z,26.41
2018-08-12T14:03:50.155Z,26.36
2018-08-12T14:05:00.389Z,26.3
2018-08-12T14:06:10.678Z,26.29
2018-08-12T14:07:20.924Z,26.24
2018-08-12T14:08:31.188Z,26.19
2018-08-12T14:09:41.544Z,26.19
2018-08-12T14:10:51.960Z,26.18
2018-08-12T14:12:02.496Z,26.21
2018-08-12T14:13:12.863Z,26.25
2018-08-12T14:14:23.082Z,26.21
2018-08-12T14:15:33.280Z,26.25
2018-08-12T14:16:43.556Z,26.29
2018-08-12T14:17:53.508Z,26.36
2018-08-12T14:19:03.811Z,26.37
2018-08-12T14:20:14.117Z,26.41
2018-08-12T14:21:25.053Z,26.48
2018-08-12T14:22:35.465Z,26.43
2018-08-12T14:23:46.670Z,26.4
2018-08-12T14:24:56.958Z,26.46
2018-08-12T14:26:07.164Z,26.37
2018-08-12T14:27:17.413Z,26.39
2018-08-12T14:28:27.681Z,26.34
2018-08-12T14:29:38.387Z,26.24
2018-08-12T14:30:48.653Z,26.16
2018-08-12T14:31:58.934Z,26.18
2018-08-12T14:33:09.258Z,26.02
2018-08-12T14:34:19.534Z,25.85
2018-08-12T14:35:29.821Z,25.74
2018-08-12T14:36:40.062Z,25.71
2018-08-12T14:37:50.811Z,25.56
2018-08-12T14:39:01.534Z,25.65
2018-08-12T14:40:11.811Z,25.62
2018-08-12T14:41:22.149Z,25.61
2018-08-12T14:42:32.091Z,25.65
2018-08-12T14:43:42.885Z,25.64
2018-08-12T14:44:53.532Z,25.68
2018-08-12T14:46:03.508Z,25.62
2018-08-12T14:47:13.731Z,25.69
2018-08-12T14:48:23.777Z,25.74
2018-08-12T14:49:34.751Z,25.81
2018-08-12T14:50:45.011Z,25.85
2018-08-12T14:51:55.216Z,25.9
2018-08-12T14:53:05.440Z,25.93
2018-08-12T14:54:15.636Z,25.99
2018-08-12T14:55:25.865Z,26.02
2018-08-12T14:56:36.115Z,25.93
2018-08-12T14:57:46.475Z,25.96
2018-08-12T14:58:57.213Z,25.94
2018-08-12T15:00:07.469Z,25.92
2018-08-12T15:01:17.696Z,26
2018-08-12T15:02:27.924Z,25.97
2018-08-12T15:03:38.144Z,25.94
2018-08-12T15:04:48.332Z,25.96
2018-08-12T15:05:58.544Z,25.87
2018-08-12T15:07:09.048Z,25.81
2018-08-12T15:08:19.201Z,25.74
2018-08-12T15:09:29.458Z,25.78
2018-08-12T15:10:39.709Z,25.65
2018-08-12T15:11:49.935Z,25.62